createdAt,value
2023-05-06T00:12:31.928Z,69.27
2023-05-06T00:27:33.813Z,70.78
2023-05-06T00:42:35.923Z,70.81
2023-05-06T00:57:37.969Z,70.12
2023-05-06T01:13:01.338Z,70.34
2023-05-06T01:28:03.366Z,70.92
2023-05-06T01:43:06.628Z,71.60
2023-05-06T01:58:08.366Z,72.14
2023-05-06T02:13:10.899Z,71.39
2023-05-06T02:28:12.742Z,70.88
2023-05-06T02:43:14.552Z,71.83
2023-05-06T02:58:16.506Z,71.66
2023-05-06T03:13:18.319Z,71.24
2023-05-06T03:28:20.141Z,72.02
2023-05-06T03:43:21.882Z,71.27
2023-05-06T03:58:23.671Z,72.65
2023-05-06T04:13:25.535Z,72.13
2023-05-06T04:28:27.356Z,66.39
2023-05-06T04:43:29.108Z,65.32
2023-05-06T04:58:30.931Z,65.18
2023-05-06T05:28:49.058Z,58.89
2023-05-06T05:43:50.956Z,65.90
2023-05-06T05:58:53.702Z,62.49
2023-05-06T06:13:55.807Z,65.41
2023-05-06T06:29:00.718Z,67.41
2023-05-06T06:44:02.555Z,67.76
2023-05-06T06:59:04.405Z,68.38
2023-05-06T07:14:07.009Z,67.54
2023-05-06T07:29:08.780Z,63.52
2023-05-06T07:44:10.922Z,61.28
2023-05-06T07:59:12.681Z,60.36
2023-05-06T08:14:14.521Z,55.26
2023-05-06T08:29:16.346Z,56.47
2023-05-06T08:44:19.813Z,54.47
2023-05-06T08:59:27.837Z,54.07
2023-05-06T09:14:29.625Z,52.45
2023-05-06T09:29:31.520Z,51.14
2023-05-06T09:44:33.406Z,49.56
2023-05-06T09:59:36.462Z,48.33
2023-05-06T10:14:38.721Z,50.38
2023-05-06T10:29:42.771Z,51.60
2023-05-06T10:44:58.214Z,52.42
2023-05-06T11:00:00.158Z,50.10
2023-05-06T11:15:39.952Z,46.50
2023-05-06T11:30:55.090Z,44.16
2023-05-06T11:45:59.276Z,45.19
2023-05-06T12:01:03.886Z,45.05
2023-05-06T12:16:06.991Z,44.03
2023-05-06T12:31:28.984Z,42.96
2023-05-06T12:46:30.878Z,43.01
2023-05-06T13:01:32.793Z,46.90
2023-05-06T13:16:35.422Z,45.94
2023-05-06T13:31:37.287Z,47.83
2023-05-06T13:46:39.145Z,48.80
2023-05-06T14:01:41.647Z,48.37
2023-05-06T14:16:43.497Z,48.20
2023-05-06T14:31:45.290Z,43.70
2023-05-06T15:35:13.711Z,47.87
2023-05-06T17:59:11.428Z,58.32
2023-05-06T18:14:13.439Z,60.34
2023-05-06T18:29:15.323Z,59.93
2023-05-06T18:44:17.144Z,59.65
2023-05-06T18:59:19.783Z,60.14
2023-05-06T19:14:23.638Z,60.48
2023-05-06T19:29:27.247Z,61.09
2023-05-06T19:44:29.113Z,60.59
2023-05-06T19:59:30.863Z,60.82
2023-05-06T20:15:20.783Z,61.03
2023-05-06T20:30:57.667Z,59.18
2023-05-06T20:46:25.684Z,59.63
2023-05-06T22:07:58.105Z,59.07
2023-05-06T22:39:45.586Z,60.29
2023-05-06T23:43:00.988Z,64.08
